Jrs Mira — V2FS4 — position and weather

sailwx.info

Track history (hours):
 
Tides and Currents Weather Stations Pressure Air Temp Water Temp Dewpoint Dewpoint Depression Visibility Wind Speed Wind Dir Waves Ship Positions

Jrs Mira

Last reported at 2016-Jul-30 18:17 UTC. Time now 2016-Jul-30 18:48 UTC.
Position N 36°43' E 005°10'.

Length 107 m; draft 6.6 m.

Type: Cargo ship. MMSI: 305780000.

Date/timePositionNaut miles runAvg speedWind from/ knotsBaromVisibWave heightAir tempDewpointWater temp
2016-Jul-30 18:17N 36°43' E 005°10'0 0.0
2016-Jul-30 17:29N 36°43' E 005°10'0 0.0
2016-Jul-30 16:23N 36°43' E 005°10'0 0.0
2016-Jul-30 07:22N 36°43' E 005°10'  
2016-Jul-28 00:10N 36°43' E 005°10'0 0.0
2016-Jul-27 23:22N 36°43' E 005°10'0 0.0
2016-Jul-27 06:31N 36°43' E 005°10'0 0.1
2016-Jul-27 05:13N 36°43' E 005°10'41 2.8
2016-Jul-26 14:33N 37°02' E 004°25'1410.4
2016-Jul-26 13:14N 37°05' E 004°09'7 9.8
2016-Jul-26 12:32N 37°05' E 004°00'1010.2
2016-Jul-26 11:33N 37°04' E 003°48'1110.6
2016-Jul-26 10:33N 37°03' E 003°34'4811.2
2016-Jul-26 06:18N 36°56' E 002°35'2011.0
2016-Jul-26 04:29N 36°53' E 002°10'1010.9
2016-Jul-26 03:33N 36°51' E 001°58'1311.3
2016-Jul-26 02:24N 36°50' E 001°42'1011.6
2016-Jul-26 01:33N 36°48' E 001°30'1111.4
2016-Jul-26 00:33N 36°47' E 001°16'1111.0
2016-Jul-25 23:33N 36°45' E 001°02'1111.3
2016-Jul-25 22:33N 36°42' E 000°48'2211.1
2016-Jul-25 20:33N 36°38' E 000°21'2611.4
2016-Jul-25 18:15N 36°36' W 000°11'811.4
2016-Jul-25 17:33N 36°35' W 000°21'1411.3
2016-Jul-25 16:18N 36°33' W 000°39'22211.2
2016-Jul-24 20:31N 36°00' W 005°11'1112.0
2016-Jul-24 19:33N 35°58' W 005°25'86 9.1
2016-Jul-24 10:09N 35°30' W 007°04'610.5
2016-Jul-24 09:33N 35°25' W 007°10'96 2.3
2016-Jul-22 16:29N 33°51' W 007°39'1011.1
2016-Jul-22 15:33N 34°01' W 007°44'1311.2
2016-Jul-22 14:23N 34°13' W 007°50'2311.1
2016-Jul-22 12:18N 34°34' W 008°01'911.0
2016-Jul-22 11:29N 34°42' W 008°06'1011.0
2016-Jul-22 10:33N 34°52' W 008°11'15711.2
2016-Jul-21 20:30N 37°11' W 009°42'1612.0
2016-Jul-21 19:11N 37°26' W 009°45'812.1
2016-Jul-21 18:33N 37°34' W 009°47'1211.8
2016-Jul-21 17:32N 37°46' W 009°49'1111.4
2016-Jul-21 16:33N 37°57' W 009°53'1211.6
2016-Jul-21 15:33N 38°08' W 009°56'1212.2
2016-Jul-21 14:32N 38°20' W 009°59'1512.4
2016-Jul-21 13:18N 38°35' W 010°04'1012.4
2016-Jul-21 12:31N 38°45' W 010°05'1111.8
2016-Jul-21 11:33N 38°56' W 010°05'  
Track history (hours):
 
Tides and Currents Weather Stations Pressure Air Temp Water Temp Dewpoint Dewpoint Depression Visibility Wind Speed Wind Dir Waves Ship Positions

Jrs Mira

Last reported at 2016-Jul-30 18:17 UTC. Time now 2016-Jul-30 18:48 UTC.
Position N 36°43' E 005°10'.

Length 107 m; draft 6.6 m.

Type: Cargo ship. MMSI: 305780000.

Date/timePositionNaut miles runAvg speedWind from/ knotsBaromVisibWave heightAir tempDewpointWater temp
2016-Jul-30 18:17N 36°43' E 005°10'0 0.0
2016-Jul-30 17:29N 36°43' E 005°10'0 0.0
2016-Jul-30 16:23N 36°43' E 005°10'0 0.0
2016-Jul-30 07:22N 36°43' E 005°10'  
2016-Jul-28 00:10N 36°43' E 005°10'0 0.0
2016-Jul-27 23:22N 36°43' E 005°10'0 0.0
2016-Jul-27 06:31N 36°43' E 005°10'0 0.1
2016-Jul-27 05:13N 36°43' E 005°10'41 2.8
2016-Jul-26 14:33N 37°02' E 004°25'1410.4
2016-Jul-26 13:14N 37°05' E 004°09'7 9.8
2016-Jul-26 12:32N 37°05' E 004°00'1010.2
2016-Jul-26 11:33N 37°04' E 003°48'1110.6
2016-Jul-26 10:33N 37°03' E 003°34'4811.2
2016-Jul-26 06:18N 36°56' E 002°35'2011.0
2016-Jul-26 04:29N 36°53' E 002°10'1010.9
2016-Jul-26 03:33N 36°51' E 001°58'1311.3
2016-Jul-26 02:24N 36°50' E 001°42'1011.6
2016-Jul-26 01:33N 36°48' E 001°30'1111.4
2016-Jul-26 00:33N 36°47' E 001°16'1111.0
2016-Jul-25 23:33N 36°45' E 001°02'1111.3
2016-Jul-25 22:33N 36°42' E 000°48'2211.1
2016-Jul-25 20:33N 36°38' E 000°21'2611.4
2016-Jul-25 18:15N 36°36' W 000°11'811.4
2016-Jul-25 17:33N 36°35' W 000°21'1411.3
2016-Jul-25 16:18N 36°33' W 000°39'22211.2
2016-Jul-24 20:31N 36°00' W 005°11'1112.0
2016-Jul-24 19:33N 35°58' W 005°25'86 9.1
2016-Jul-24 10:09N 35°30' W 007°04'610.5
2016-Jul-24 09:33N 35°25' W 007°10'96 2.3
2016-Jul-22 16:29N 33°51' W 007°39'1011.1
2016-Jul-22 15:33N 34°01' W 007°44'1311.2
2016-Jul-22 14:23N 34°13' W 007°50'2311.1
2016-Jul-22 12:18N 34°34' W 008°01'911.0
2016-Jul-22 11:29N 34°42' W 008°06'1011.0
2016-Jul-22 10:33N 34°52' W 008°11'15711.2
2016-Jul-21 20:30N 37°11' W 009°42'1612.0
2016-Jul-21 19:11N 37°26' W 009°45'812.1
2016-Jul-21 18:33N 37°34' W 009°47'1211.8
2016-Jul-21 17:32N 37°46' W 009°49'1111.4
2016-Jul-21 16:33N 37°57' W 009°53'1211.6
2016-Jul-21 15:33N 38°08' W 009°56'1212.2
2016-Jul-21 14:32N 38°20' W 009°59'1512.4
2016-Jul-21 13:18N 38°35' W 010°04'1012.4
2016-Jul-21 12:31N 38°45' W 010°05'1111.8
2016-Jul-21 11:33N 38°56' W 010°05'  

Dump ship's entire track history